sensor_id;sensor_type;location;lat;lon;timestamp;temperature;humidity
45137;DHT22;30894;51.740;19.498;2022-09-03T00:02:27;6.70;70.10
45137;DHT22;30894;51.740;19.498;2022-09-03T00:08:19;6.60;70.20
45137;DHT22;30894;51.740;19.498;2022-09-03T00:10:56;6.60;70.30
45137;DHT22;30894;51.740;19.498;2022-09-03T00:13:35;6.50;70.40
45137;DHT22;30894;51.740;19.498;2022-09-03T00:16:05;6.50;70.50
45137;DHT22;30894;51.740;19.498;2022-09-03T00:18:44;6.40;70.50
45137;DHT22;30894;51.740;19.498;2022-09-03T00:21:37;6.40;70.70
45137;DHT22;30894;51.740;19.498;2022-09-03T00:24:10;6.40;70.80
45137;DHT22;30894;51.740;19.498;2022-09-03T00:26:41;6.40;70.70
45137;DHT22;30894;51.740;19.498;2022-09-03T00:29:14;6.40;70.60
45137;DHT22;30894;51.740;19.498;2022-09-03T00:31:50;6.40;70.60
45137;DHT22;30894;51.740;19.498;2022-09-03T00:34:24;6.40;70.70
45137;DHT22;30894;51.740;19.498;2022-09-03T00:36:55;6.30;70.70
45137;DHT22;30894;51.740;19.498;2022-09-03T00:39:23;6.30;70.90
45137;DHT22;30894;51.740;19.498;2022-09-03T00:45:52;6.20;71.00
45137;DHT22;30894;51.740;19.498;2022-09-03T00:48:13;6.20;71.10
45137;DHT22;30894;51.740;19.498;2022-09-03T00:51:09;6.20;71.10
45137;DHT22;30894;51.740;19.498;2022-09-03T00:54:27;6.20;71.20
45137;DHT22;30894;51.740;19.498;2022-09-03T01:05:41;6.00;71.30
45137;DHT22;30894;51.740;19.498;2022-09-03T01:23:41;5.80;71.60
45137;DHT22;30894;51.740;19.498;2022-09-03T01:29:40;5.70;71.70
45137;DHT22;30894;51.740;19.498;2022-09-03T01:32:26;5.70;71.80
45137;DHT22;30894;51.740;19.498;2022-09-03T01:35:29;5.70;71.80
45137;DHT22;30894;51.740;19.498;2022-09-03T01:38:30;5.70;71.90
45137;DHT22;30894;51.740;19.498;2022-09-03T01:47:55;5.60;71.80
45137;DHT22;30894;51.740;19.498;2022-09-03T01:50:53;5.60;71.90
45137;DHT22;30894;51.740;19.498;2022-09-03T01:54:05;5.60;72.00
45137;DHT22;30894;51.740;19.498;2022-09-03T01:59:39;5.50;72.00
45137;DHT22;30894;51.740;19.498;2022-09-03T02:02:21;5.50;72.10
45137;DHT22;30894;51.740;19.498;2022-09-03T02:05:08;5.50;72.20
45137;DHT22;30894;51.740;19.498;2022-09-03T02:10:39;5.40;72.30
45137;DHT22;30894;51.740;19.498;2022-09-03T02:13:09;5.40;72.40
45137;DHT22;30894;51.740;19.498;2022-09-03T02:15:42;5.30;72.40
45137;DHT22;30894;51.740;19.498;2022-09-03T02:18:17;5.30;72.50
45137;DHT22;30894;51.740;19.498;2022-09-03T02:21:21;5.30;72.50
45137;DHT22;30894;51.740;19.498;2022-09-03T02:23:49;5.30;72.50
45137;DHT22;30894;51.740;19.498;2022-09-03T02:26:20;5.30;72.50
45137;DHT22;30894;51.740;19.498;2022-09-03T02:28:47;5.30;72.50
45137;DHT22;30894;51.740;19.498;2022-09-03T02:31:15;5.30;72.50
45137;DHT22;30894;51.740;19.498;2022-09-03T02:33:44;5.30;72.50
45137;DHT22;30894;51.740;19.498;2022-09-03T02:36:16;5.30;72.50
45137;DHT22;30894;51.740;19.498;2022-09-03T02:38:44;5.30;72.50
45137;DHT22;30894;51.740;19.498;2022-09-03T02:41:10;5.20;72.40
45137;DHT22;30894;51.740;19.498;2022-09-03T02:44:01;5.20;72.50
45137;DHT22;30894;51.740;19.498;2022-09-03T02:46:38;5.20;72.60
45137;DHT22;30894;51.740;19.498;2022-09-03T02:49:10;5.30;72.60
45137;DHT22;30894;51.740;19.498;2022-09-03T02:51:39;5.30;72.50
45137;DHT22;30894;51.740;19.498;2022-09-03T02:54:07;5.20;72.50
45137;DHT22;30894;51.740;19.498;2022-09-03T02:56:35;5.20;72.60
45137;DHT22;30894;51.740;19.498;2022-09-03T02:59:02;5.10;72.60
45137;DHT22;30894;51.740;19.498;2022-09-03T03:01:30;5.10;72.80
45137;DHT22;30894;51.740;19.498;2022-09-03T03:03:56;5.10;72.80
45137;DHT22;30894;51.740;19.498;2022-09-03T03:06:22;5.10;72.90
45137;DHT22;30894;51.740;19.498;2022-09-03T03:08:49;5.00;72.90
45137;DHT22;30894;51.740;19.498;2022-09-03T03:11:16;5.00;72.90
45137;DHT22;30894;51.740;19.498;2022-09-03T03:13:44;5.00;73.00
45137;DHT22;30894;51.740;19.498;2022-09-03T03:16:12;4.90;73.10
45137;DHT22;30894;51.740;19.498;2022-09-03T03:18:38;4.90;73.10
45137;DHT22;30894;51.740;19.498;2022-09-03T03:21:07;4.90;73.10
45137;DHT22;30894;51.740;19.498;2022-09-03T03:23:35;4.90;73.80
45137;DHT22;30894;51.740;19.498;2022-09-03T03:26:03;4.90;73.20
45137;DHT22;30894;51.740;19.498;2022-09-03T03:28:30;5.00;73.10
45137;DHT22;30894;51.740;19.498;2022-09-03T03:31:11;5.00;72.90
45137;DHT22;30894;51.740;19.498;2022-09-03T03:33:39;5.00;72.70
45137;DHT22;30894;51.740;19.498;2022-09-03T03:36:07;5.00;72.60
45137;DHT22;30894;51.740;19.498;2022-09-03T03:38:38;4.90;72.60
45137;DHT22;30894;51.740;19.498;2022-09-03T03:41:19;4.90;72.60
45137;DHT22;30894;51.740;19.498;2022-09-03T03:43:47;4.90;72.60
45137;DHT22;30894;51.740;19.498;2022-09-03T03:46:18;4.90;72.60
45137;DHT22;30894;51.740;19.498;2022-09-03T03:48:47;4.80;72.70
45137;DHT22;30894;51.740;19.498;2022-09-03T03:51:13;4.80;72.80
45137;DHT22;30894;51.740;19.498;2022-09-03T03:53:40;4.80;72.80
45137;DHT22;30894;51.740;19.498;2022-09-03T03:56:08;4.70;72.90
45137;DHT22;30894;51.740;19.498;2022-09-03T03:58:36;4.80;73.00
45137;DHT22;30894;51.740;19.498;2022-09-03T04:01:05;4.70;73.00
45137;DHT22;30894;51.740;19.498;2022-09-03T04:03:33;4.70;73.00
45137;DHT22;30894;51.740;19.498;2022-09-03T04:06:00;4.80;73.00
45137;DHT22;30894;51.740;19.498;2022-09-03T04:08:28;4.70;73.00
45137;DHT22;30894;51.740;19.498;2022-09-03T04:10:57;4.70;73.20
45137;DHT22;30894;51.740;19.498;2022-09-03T04:13:31;4.70;73.20
45137;DHT22;30894;51.740;19.498;2022-09-03T04:16:03;4.70;73.20
45137;DHT22;30894;51.740;19.498;2022-09-03T04:18:36;4.60;73.20
45137;DHT22;30894;51.740;19.498;2022-09-03T04:23:37;4.60;73.30
45137;DHT22;30894;51.740;19.498;2022-09-03T04:26:05;4.70;73.30
45137;DHT22;30894;51.740;19.498;2022-09-03T04:28:32;4.70;73.20
45137;DHT22;30894;51.740;19.498;2022-09-03T04:31:03;4.70;73.10
45137;DHT22;30894;51.740;19.498;2022-09-03T04:33:31;4.80;73.10
45137;DHT22;30894;51.740;19.498;2022-09-03T04:36:25;4.80;73.00
45137;DHT22;30894;51.740;19.498;2022-09-03T04:38:54;4.90;73.20
45137;DHT22;30894;51.740;19.498;2022-09-03T04:41:23;5.20;73.20
45137;DHT22;30894;51.740;19.498;2022-09-03T04:43:51;5.50;72.60
45137;DHT22;30894;51.740;19.498;2022-09-03T04:46:20;5.80;72.10
45137;DHT22;30894;51.740;19.498;2022-09-03T04:48:48;6.20;71.60
45137;DHT22;30894;51.740;19.498;2022-09-03T04:51:20;6.50;71.00
45137;DHT22;30894;51.740;19.498;2022-09-03T04:53:54;6.90;70.30
45137;DHT22;30894;51.740;19.498;2022-09-03T04:56:24;7.30;69.70
45137;DHT22;30894;51.740;19.498;2022-09-03T04:58:55;7.70;69.10
45137;DHT22;30894;51.740;19.498;2022-09-03T05:01:25;8.10;68.50
45137;DHT22;30894;51.740;19.498;2022-09-03T05:03:52;8.50;67.90
45137;DHT22;30894;51.740;19.498;2022-09-03T05:06:19;8.90;67.30
45137;DHT22;30894;51.740;19.498;2022-09-03T05:08:49;9.20;66.70
45137;DHT22;30894;51.740;19.498;2022-09-03T05:11:16;9.60;66.20
45137;DHT22;30894;51.740;19.498;2022-09-03T05:13:46;9.90;65.80
45137;DHT22;30894;51.740;19.498;2022-09-03T05:16:14;10.20;65.40
45137;DHT22;30894;51.740;19.498;2022-09-03T05:18:40;10.50;65.00
45137;DHT22;30894;51.740;19.498;2022-09-03T05:21:09;10.90;64.70
45137;DHT22;30894;51.740;19.498;2022-09-03T05:23:38;11.10;64.30
45137;DHT22;30894;51.740;19.498;2022-09-03T05:26:15;11.40;64.00
45137;DHT22;30894;51.740;19.498;2022-09-03T05:28:45;11.80;63.70
45137;DHT22;30894;51.740;19.498;2022-09-03T05:31:16;12.00;63.40
45137;DHT22;30894;51.740;19.498;2022-09-03T05:33:51;12.30;63.10
45137;DHT22;30894;51.740;19.498;2022-09-03T05:36:22;12.60;62.70
45137;DHT22;30894;51.740;19.498;2022-09-03T05:38:49;13.00;62.50
45137;DHT22;30894;51.740;19.498;2022-09-03T05:41:17;13.20;62.20
45137;DHT22;30894;51.740;19.498;2022-09-03T05:43:43;13.50;62.10
45137;DHT22;30894;51.740;19.498;2022-09-03T05:46:11;13.60;61.90
45137;DHT22;30894;51.740;19.498;2022-09-03T05:48:41;13.80;62.00
45137;DHT22;30894;51.740;19.498;2022-09-03T05:51:10;14.00;62.00
45137;DHT22;30894;51.740;19.498;2022-09-03T05:53:39;14.20;61.90
45137;DHT22;30894;51.740;19.498;2022-09-03T05:56:08;14.40;61.70
45137;DHT22;30894;51.740;19.498;2022-09-03T05:58:42;14.70;61.50
45137;DHT22;30894;51.740;19.498;2022-09-03T06:01:24;15.00;61.50
45137;DHT22;30894;51.740;19.498;2022-09-03T06:04:05;15.20;61.30
45137;DHT22;30894;51.740;19.498;2022-09-03T06:06:34;15.60;60.90
45137;DHT22;30894;51.740;19.498;2022-09-03T06:09:08;16.00;60.50
45137;DHT22;30894;51.740;19.498;2022-09-03T06:11:37;16.50;60.00
45137;DHT22;30894;51.740;19.498;2022-09-03T06:14:06;16.90;59.60
45137;DHT22;30894;51.740;19.498;2022-09-03T06:16:36;17.30;59.10
45137;DHT22;30894;51.740;19.498;2022-09-03T06:19:07;17.60;58.70
45137;DHT22;30894;51.740;19.498;2022-09-03T06:21:41;17.80;58.60
45137;DHT22;30894;51.740;19.498;2022-09-03T06:24:10;18.20;58.30
45137;DHT22;30894;51.740;19.498;2022-09-03T06:26:38;18.60;57.90
45137;DHT22;30894;51.740;19.498;2022-09-03T06:29:05;19.10;57.30
45137;DHT22;30894;51.740;19.498;2022-09-03T06:31:31;19.70;56.60
45137;DHT22;30894;51.740;19.498;2022-09-03T06:33:57;20.20;56.00
45137;DHT22;30894;51.740;19.498;2022-09-03T06:36:24;20.70;55.30
45137;DHT22;30894;51.740;19.498;2022-09-03T06:38:53;21.20;54.70
45137;DHT22;30894;51.740;19.498;2022-09-03T06:41:22;21.60;54.40
45137;DHT22;30894;51.740;19.498;2022-09-03T06:43:52;22.00;54.00
45137;DHT22;30894;51.740;19.498;2022-09-03T06:46:21;22.30;53.80
45137;DHT22;30894;51.740;19.498;2022-09-03T06:48:48;22.70;53.40
45137;DHT22;30894;51.740;19.498;2022-09-03T06:51:22;23.20;52.90
45137;DHT22;30894;51.740;19.498;2022-09-03T06:53:54;23.60;52.60
45137;DHT22;30894;51.740;19.498;2022-09-03T06:56:28;23.90;52.40
45137;DHT22;30894;51.740;19.498;2022-09-03T06:58:58;24.10;52.10
45137;DHT22;30894;51.740;19.498;2022-09-03T07:01:27;24.30;52.00
45137;DHT22;30894;51.740;19.498;2022-09-03T07:03:58;24.60;51.90
45137;DHT22;30894;51.740;19.498;2022-09-03T07:06:27;24.80;51.70
45137;DHT22;30894;51.740;19.498;2022-09-03T07:08:54;25.10;51.60
45137;DHT22;30894;51.740;19.498;2022-09-03T07:11:26;25.40;51.40
45137;DHT22;30894;51.740;19.498;2022-09-03T07:13:54;25.60;51.20
45137;DHT22;30894;51.740;19.498;2022-09-03T07:16:22;25.70;51.10
45137;DHT22;30894;51.740;19.498;2022-09-03T07:18:53;26.00;51.10
45137;DHT22;30894;51.740;19.498;2022-09-03T07:21:25;26.20;50.90
45137;DHT22;30894;51.740;19.498;2022-09-03T07:23:53;26.50;50.90
45137;DHT22;30894;51.740;19.498;2022-09-03T07:26:25;26.70;50.60
45137;DHT22;30894;51.740;19.498;2022-09-03T07:28:53;27.10;50.50
45137;DHT22;30894;51.740;19.498;2022-09-03T07:33:53;27.40;50.00
45137;DHT22;30894;51.740;19.498;2022-09-03T07:36:21;27.40;50.00
45137;DHT22;30894;51.740;19.498;2022-09-03T07:38:49;27.50;50.00
45137;DHT22;30894;51.740;19.498;2022-09-03T07:41:16;27.70;50.00
45137;DHT22;30894;51.740;19.498;2022-09-03T07:43:44;27.80;49.80
45137;DHT22;30894;51.740;19.498;2022-09-03T07:46:19;28.10;49.60
45137;DHT22;30894;51.740;19.498;2022-09-03T07:48:50;28.40;49.20
45137;DHT22;30894;51.740;19.498;2022-09-03T07:51:19;28.50;49.20
45137;DHT22;30894;51.740;19.498;2022-09-03T07:53:47;28.70;49.00
45137;DHT22;30894;51.740;19.498;2022-09-03T07:56:14;28.80;48.90
45137;DHT22;30894;51.740;19.498;2022-09-03T07:58:40;28.90;48.80
45137;DHT22;30894;51.740;19.498;2022-09-03T08:01:11;29.10;48.50
45137;DHT22;30894;51.740;19.498;2022-09-03T08:03:42;29.20;48.40
45137;DHT22;30894;51.740;19.498;2022-09-03T08:06:11;29.40;48.20
45137;DHT22;30894;51.740;19.498;2022-09-03T08:08:38;29.70;48.10
45137;DHT22;30894;51.740;19.498;2022-09-03T08:11:07;29.70;47.80
45137;DHT22;30894;51.740;19.498;2022-09-03T08:13:39;29.70;47.90
45137;DHT22;30894;51.740;19.498;2022-09-03T08:16:07;29.70;47.80
45137;DHT22;30894;51.740;19.498;2022-09-03T08:18:34;30.00;47.60
45137;DHT22;30894;51.740;19.498;2022-09-03T08:21:05;30.20;47.40
45137;DHT22;30894;51.740;19.498;2022-09-03T08:23:37;30.40;47.20
45137;DHT22;30894;51.740;19.498;2022-09-03T08:26:05;30.60;46.90
45137;DHT22;30894;51.740;19.498;2022-09-03T08:28:33;30.80;46.80
45137;DHT22;30894;51.740;19.498;2022-09-03T08:33:40;31.30;46.50
45137;DHT22;30894;51.740;19.498;2022-09-03T08:36:11;31.70;46.10
45137;DHT22;30894;51.740;19.498;2022-09-03T08:38:42;31.90;45.90
45137;DHT22;30894;51.740;19.498;2022-09-03T08:41:15;32.00;45.70
45137;DHT22;30894;51.740;19.498;2022-09-03T08:44:08;32.10;45.50
45137;DHT22;30894;51.740;19.498;2022-09-03T08:49:39;32.00;45.60
45137;DHT22;30894;51.740;19.498;2022-09-03T08:55:33;32.30;45.40
45137;DHT22;30894;51.740;19.498;2022-09-03T08:58:11;32.60;45.00
45137;DHT22;30894;51.740;19.498;2022-09-03T09:01:06;32.80;44.90
45137;DHT22;30894;51.740;19.498;2022-09-03T09:06:54;33.30;44.50
45137;DHT22;30894;51.740;19.498;2022-09-03T09:18:13;33.70;44.20
45137;DHT22;30894;51.740;19.498;2022-09-03T09:21:39;34.20;43.80
45137;DHT22;30894;51.740;19.498;2022-09-03T09:23:48;34.60;43.50
45137;DHT22;30894;51.740;19.498;2022-09-03T09:26:18;34.60;43.40
45137;DHT22;30894;51.740;19.498;2022-09-03T09:28:54;34.70;43.20
45137;DHT22;30894;51.740;19.498;2022-09-03T09:31:24;35.10;43.00
45137;DHT22;30894;51.740;19.498;2022-09-03T09:33:50;35.30;42.90
45137;DHT22;30894;51.740;19.498;2022-09-03T09:36:16;35.60;42.80
45137;DHT22;30894;51.740;19.498;2022-09-03T09:38:45;35.50;42.70
45137;DHT22;30894;51.740;19.498;2022-09-03T09:41:15;35.40;42.80
45137;DHT22;30894;51.740;19.498;2022-09-03T09:43:46;35.30;42.90
45137;DHT22;30894;51.740;19.498;2022-09-03T09:46:21;35.40;42.90
45137;DHT22;30894;51.740;19.498;2022-09-03T09:48:55;35.30;42.80
45137;DHT22;30894;51.740;19.498;2022-09-03T09:51:27;35.50;42.80
45137;DHT22;30894;51.740;19.498;2022-09-03T09:54:16;35.60;42.60
45137;DHT22;30894;51.740;19.498;2022-09-03T09:56:45;35.90;42.50
45137;DHT22;30894;51.740;19.498;2022-09-03T09:59:13;36.10;42.20
45137;DHT22;30894;51.740;19.498;2022-09-03T10:01:42;36.10;42.00
45137;DHT22;30894;51.740;19.498;2022-09-03T10:04:21;36.00;41.90
45137;DHT22;30894;51.740;19.498;2022-09-03T10:07:15;35.50;42.30
45137;DHT22;30894;51.740;19.498;2022-09-03T10:10:02;35.30;42.50
45137;DHT22;30894;51.740;19.498;2022-09-03T10:12:48;35.40;42.60
45137;DHT22;30894;51.740;19.498;2022-09-03T10:18:44;35.30;42.60
45137;DHT22;30894;51.740;19.498;2022-09-03T10:21:28;35.50;42.40
45137;DHT22;30894;51.740;19.498;2022-09-03T10:26:49;35.00;42.60
45137;DHT22;30894;51.740;19.498;2022-09-03T10:29:18;35.00;42.50
45137;DHT22;30894;51.740;19.498;2022-09-03T10:45:07;35.20;42.20
45137;DHT22;30894;51.740;19.498;2022-09-03T11:01:37;37.10;40.40
45137;DHT22;30894;51.740;19.498;2022-09-03T11:07:18;36.90;40.50
45137;DHT22;30894;51.740;19.498;2022-09-03T11:09:54;37.00;40.60
45137;DHT22;30894;51.740;19.498;2022-09-03T11:12:37;37.10;40.50
45137;DHT22;30894;51.740;19.498;2022-09-03T11:15:14;36.90;40.50
45137;DHT22;30894;51.740;19.498;2022-09-03T11:18:00;36.70;40.70
45137;DHT22;30894;51.740;19.498;2022-09-03T11:20:30;36.80;40.70
45137;DHT22;30894;51.740;19.498;2022-09-03T11:23:00;36.30;40.70
45137;DHT22;30894;51.740;19.498;2022-09-03T11:25:34;35.80;41.00
45137;DHT22;30894;51.740;19.498;2022-09-03T11:28:26;35.50;41.40
45137;DHT22;30894;51.740;19.498;2022-09-03T11:31:22;35.50;41.30
45137;DHT22;30894;51.740;19.498;2022-09-03T11:33:55;35.50;41.20
45137;DHT22;30894;51.740;19.498;2022-09-03T11:36:37;35.70;41.10
45137;DHT22;30894;51.740;19.498;2022-09-03T11:39:21;36.00;40.80
45137;DHT22;30894;51.740;19.498;2022-09-03T11:42:00;36.40;40.60
45137;DHT22;30894;51.740;19.498;2022-09-03T11:44:42;36.80;40.20
45137;DHT22;30894;51.740;19.498;2022-09-03T11:49:52;36.90;39.70
45137;DHT22;30894;51.740;19.498;2022-09-03T11:52:27;37.20;39.70
45137;DHT22;30894;51.740;19.498;2022-09-03T11:54:54;37.20;39.60
45137;DHT22;30894;51.740;19.498;2022-09-03T11:57:27;36.70;40.60
45137;DHT22;30894;51.740;19.498;2022-09-03T12:00:12;35.40;40.80
45137;DHT22;30894;51.740;19.498;2022-09-03T12:02:44;34.90;41.40
45137;DHT22;30894;51.740;19.498;2022-09-03T12:10:56;34.70;41.30
45137;DHT22;30894;51.740;19.498;2022-09-03T12:14:15;35.30;41.00
45137;DHT22;30894;51.740;19.498;2022-09-03T12:17:08;36.10;40.50
45137;DHT22;30894;51.740;19.498;2022-09-03T12:19:51;36.10;40.00
45137;DHT22;30894;51.740;19.498;2022-09-03T12:22:21;35.30;40.60
45137;DHT22;30894;51.740;19.498;2022-09-03T12:24:50;35.10;40.80
45137;DHT22;30894;51.740;19.498;2022-09-03T12:27:24;35.20;40.80
45137;DHT22;30894;51.740;19.498;2022-09-03T12:29:59;35.60;40.50
45137;DHT22;30894;51.740;19.498;2022-09-03T12:32:28;35.40;40.40
45137;DHT22;30894;51.740;19.498;2022-09-03T12:34:57;35.10;40.70
45137;DHT22;30894;51.740;19.498;2022-09-03T12:37:36;34.90;40.80
45137;DHT22;30894;51.740;19.498;2022-09-03T12:40:03;34.50;41.00
45137;DHT22;30894;51.740;19.498;2022-09-03T12:42:30;34.30;41.20
45137;DHT22;30894;51.740;19.498;2022-09-03T12:45:07;34.20;41.20
45137;DHT22;30894;51.740;19.498;2022-09-03T12:47:38;34.30;41.00
45137;DHT22;30894;51.740;19.498;2022-09-03T12:50:15;34.50;40.90
45137;DHT22;30894;51.740;19.498;2022-09-03T12:55:26;34.60;40.70
45137;DHT22;30894;51.740;19.498;2022-09-03T12:58:17;34.50;40.60
45137;DHT22;30894;51.740;19.498;2022-09-03T13:00:59;34.40;40.80
45137;DHT22;30894;51.740;19.498;2022-09-03T13:03:43;34.20;40.70
45137;DHT22;30894;51.740;19.498;2022-09-03T13:06:19;33.80;41.10
45137;DHT22;30894;51.740;19.498;2022-09-03T13:08:51;33.50;41.30
45137;DHT22;30894;51.740;19.498;2022-09-03T13:11:23;33.30;41.50
45137;DHT22;30894;51.740;19.498;2022-09-03T13:25:27;32.50;42.00
45137;DHT22;30894;51.740;19.498;2022-09-03T13:30:40;31.90;42.30
45137;DHT22;30894;51.740;19.498;2022-09-03T13:33:23;31.60;42.30
45137;DHT22;30894;51.740;19.498;2022-09-03T13:38:59;31.90;42.20
45137;DHT22;30894;51.740;19.498;2022-09-03T13:41:48;32.30;41.70
45137;DHT22;30894;51.740;19.498;2022-09-03T13:44:48;32.90;41.30
45137;DHT22;30894;51.740;19.498;2022-09-03T13:47:30;33.20;40.90
45137;DHT22;30894;51.740;19.498;2022-09-03T13:50:29;33.50;40.70
45137;DHT22;30894;51.740;19.498;2022-09-03T13:53:07;33.60;40.50
45137;DHT22;30894;51.740;19.498;2022-09-03T13:55:50;33.50;40.40
45137;DHT22;30894;51.740;19.498;2022-09-03T13:58:40;33.50;40.40
45137;DHT22;30894;51.740;19.498;2022-09-03T14:03:54;33.90;40.30
45137;DHT22;30894;51.740;19.498;2022-09-03T14:06:43;34.10;40.20
45137;DHT22;30894;51.740;19.498;2022-09-03T14:09:47;33.80;40.20
45137;DHT22;30894;51.740;19.498;2022-09-03T14:12:28;33.40;40.50
45137;DHT22;30894;51.740;19.498;2022-09-03T14:15:09;33.20;40.80
45137;DHT22;30894;51.740;19.498;2022-09-03T14:17:46;33.10;40.70
45137;DHT22;30894;51.740;19.498;2022-09-03T14:26:21;32.80;40.90
45137;DHT22;30894;51.740;19.498;2022-09-03T14:37:33;32.40;41.60
45137;DHT22;30894;51.740;19.498;2022-09-03T14:40:18;32.90;41.30
45137;DHT22;30894;51.740;19.498;2022-09-03T15:03:52;28.50;44.90
45137;DHT22;30894;51.740;19.498;2022-09-03T15:12:45;26.80;45.90
45137;DHT22;30894;51.740;19.498;2022-09-03T15:18:40;25.90;46.60
45137;DHT22;30894;51.740;19.498;2022-09-03T15:21:58;25.60;46.80
45137;DHT22;30894;51.740;19.498;2022-09-03T15:30:17;24.80;47.60
45137;DHT22;30894;51.740;19.498;2022-09-03T15:32:59;24.40;47.80
45137;DHT22;30894;51.740;19.498;2022-09-03T15:44:24;23.90;48.40
45137;DHT22;30894;51.740;19.498;2022-09-03T15:47:02;23.80;48.30
45137;DHT22;30894;51.740;19.498;2022-09-03T15:49:53;23.80;48.40
45137;DHT22;30894;51.740;19.498;2022-09-03T15:52:30;23.60;48.40
45137;DHT22;30894;51.740;19.498;2022-09-03T15:55:25;23.50;48.60
45137;DHT22;30894;51.740;19.498;2022-09-03T15:58:01;23.30;48.70
45137;DHT22;30894;51.740;19.498;2022-09-03T16:03:55;23.00;49.10
45137;DHT22;30894;51.740;19.498;2022-09-03T16:09:29;22.60;49.30
45137;DHT22;30894;51.740;19.498;2022-09-03T16:15:23;22.30;49.60
45137;DHT22;30894;51.740;19.498;2022-09-03T16:21:04;22.00;49.90
45137;DHT22;30894;51.740;19.498;2022-09-03T16:23:45;21.90;50.00
45137;DHT22;30894;51.740;19.498;2022-09-03T16:26:22;21.80;50.10
45137;DHT22;30894;51.740;19.498;2022-09-03T16:28:54;21.60;50.20
45137;DHT22;30894;51.740;19.498;2022-09-03T16:37:20;21.30;50.50
45137;DHT22;30894;51.740;19.498;2022-09-03T16:57:28;20.50;51.30
45137;DHT22;30894;51.740;19.498;2022-09-03T17:26:52;19.40;52.60
45137;DHT22;30894;51.740;19.498;2022-09-03T17:41:19;18.90;53.10
45137;DHT22;30894;51.740;19.498;2022-09-03T17:44:03;18.70;53.30
45137;DHT22;30894;51.740;19.498;2022-09-03T17:49:47;18.50;53.70
45137;DHT22;30894;51.740;19.498;2022-09-03T17:57:49;17.90;54.50
45137;DHT22;30894;51.740;19.498;2022-09-03T18:00:32;17.70;54.70
45137;DHT22;30894;51.740;19.498;2022-09-03T18:03:23;17.50;54.90
45137;DHT22;30894;51.740;19.498;2022-09-03T18:06:03;17.40;55.20
45137;DHT22;30894;51.740;19.498;2022-09-03T18:11:49;17.10;55.50
45137;DHT22;30894;51.740;19.498;2022-09-03T18:14:23;17.10;55.60
45137;DHT22;30894;51.740;19.498;2022-09-03T18:19:59;16.90;55.60
45137;DHT22;30894;51.740;19.498;2022-09-03T18:23:06;16.90;55.70
45137;DHT22;30894;51.740;19.498;2022-09-03T18:26:12;16.80;55.70
45137;DHT22;30894;51.740;19.498;2022-09-03T18:29:03;16.80;55.70
45137;DHT22;30894;51.740;19.498;2022-09-03T18:31:56;16.70;55.80
45137;DHT22;30894;51.740;19.498;2022-09-03T18:34:40;16.70;55.90
45137;DHT22;30894;51.740;19.498;2022-09-03T18:37:26;16.60;56.00
45137;DHT22;30894;51.740;19.498;2022-09-03T18:40:23;16.50;56.00
45137;DHT22;30894;51.740;19.498;2022-09-03T18:43:30;16.50;56.10
45137;DHT22;30894;51.740;19.498;2022-09-03T18:46:47;16.40;56.10
45137;DHT22;30894;51.740;19.498;2022-09-03T18:56:06;16.30;56.30
45137;DHT22;30894;51.740;19.498;2022-09-03T19:02:35;16.20;56.30
45137;DHT22;30894;51.740;19.498;2022-09-03T19:09:09;16.00;56.40
45137;DHT22;30894;51.740;19.498;2022-09-03T19:15:35;15.90;56.50
45137;DHT22;30894;51.740;19.498;2022-09-03T19:22:18;15.90;56.60
45137;DHT22;30894;51.740;19.498;2022-09-03T19:25:12;15.80;56.60
45137;DHT22;30894;51.740;19.498;2022-09-03T19:34:21;15.70;56.70
45137;DHT22;30894;51.740;19.498;2022-09-03T19:47:06;15.60;56.90
45137;DHT22;30894;51.740;19.498;2022-09-03T19:53:14;15.50;57.00
45137;DHT22;30894;51.740;19.498;2022-09-03T19:56:05;15.50;57.00
45137;DHT22;30894;51.740;19.498;2022-09-03T19:58:58;15.50;57.00
45137;DHT22;30894;51.740;19.498;2022-09-03T20:01:46;15.40;57.00
45137;DHT22;30894;51.740;19.498;2022-09-03T20:04:37;15.40;57.10
45137;DHT22;30894;51.740;19.498;2022-09-03T20:07:24;15.30;57.10
45137;DHT22;30894;51.740;19.498;2022-09-03T20:10:11;15.30;57.20
45137;DHT22;30894;51.740;19.498;2022-09-03T20:18:36;15.20;57.40
45137;DHT22;30894;51.740;19.498;2022-09-03T20:24:20;15.10;57.50
45137;DHT22;30894;51.740;19.498;2022-09-03T20:38:38;14.60;58.30
45137;DHT22;30894;51.740;19.498;2022-09-03T20:50:18;14.20;59.10
45137;DHT22;30894;51.740;19.498;2022-09-03T20:56:02;14.00;59.50
45137;DHT22;30894;51.740;19.498;2022-09-03T21:01:10;13.70;59.80
45137;DHT22;30894;51.740;19.498;2022-09-03T21:06:58;13.50;60.20
45137;DHT22;30894;51.740;19.498;2022-09-03T21:09:50;13.40;60.30
45137;DHT22;30894;51.740;19.498;2022-09-03T21:12:40;13.40;60.40
45137;DHT22;30894;51.740;19.498;2022-09-03T21:18:38;13.20;60.50
45137;DHT22;30894;51.740;19.498;2022-09-03T21:24:25;13.00;60.90
45137;DHT22;30894;51.740;19.498;2022-09-03T21:27:06;12.80;61.10
45137;DHT22;30894;51.740;19.498;2022-09-03T21:29:55;12.70;61.30
45137;DHT22;30894;51.740;19.498;2022-09-03T21:32:28;12.60;62.00
45137;DHT22;30894;51.740;19.498;2022-09-03T21:37:57;12.40;62.00
45137;DHT22;30894;51.740;19.498;2022-09-03T21:40:27;12.30;62.10
45137;DHT22;30894;51.740;19.498;2022-09-03T21:43:24;12.30;62.20
45137;DHT22;30894;51.740;19.498;2022-09-03T21:46:06;12.20;62.20
45137;DHT22;30894;51.740;19.498;2022-09-03T21:49:02;12.20;62.20
45137;DHT22;30894;51.740;19.498;2022-09-03T21:51:37;12.20;62.20
45137;DHT22;30894;51.740;19.498;2022-09-03T21:54:32;12.20;62.20
45137;DHT22;30894;51.740;19.498;2022-09-03T21:57:19;12.10;62.20
45137;DHT22;30894;51.740;19.498;2022-09-03T22:00:14;12.00;62.30
45137;DHT22;30894;51.740;19.498;2022-09-03T22:02:46;11.90;62.50
45137;DHT22;30894;51.740;19.498;2022-09-03T22:05:15;11.80;62.70
45137;DHT22;30894;51.740;19.498;2022-09-03T22:08:06;11.70;63.10
45137;DHT22;30894;51.740;19.498;2022-09-03T22:18:54;11.30;63.50
45137;DHT22;30894;51.740;19.498;2022-09-03T22:21:31;11.20;63.60
45137;DHT22;30894;51.740;19.498;2022-09-03T22:24:09;11.10;63.70
45137;DHT22;30894;51.740;19.498;2022-09-03T22:30:05;11.00;64.00
45137;DHT22;30894;51.740;19.498;2022-09-03T22:47:03;10.70;64.30
45137;DHT22;30894;51.740;19.498;2022-09-03T22:56:12;10.80;64.20
45137;DHT22;30894;51.740;19.498;2022-09-03T22:59:01;10.80;64.10
45137;DHT22;30894;51.740;19.498;2022-09-03T23:01:42;10.90;64.00
45137;DHT22;30894;51.740;19.498;2022-09-03T23:07:53;10.90;63.80
45137;DHT22;30894;51.740;19.498;2022-09-03T23:13:49;10.90;64.00
45137;DHT22;30894;51.740;19.498;2022-09-03T23:19:12;10.90;64.10